Time;durP1;ratioP1;P1;durP2;ratioP2;P2;SDS_P1;SDS_P2;PMS_P1;PMS_P2;Temp;Humidity;BMP_temperature;BMP_pressure;BME280_temperature;BME280_humidity;BME280_pressure;Samples;Min_cycle;Max_cycle;Signal;HPM_P1;HPM_P2
2022/03/16 00:02:11;;;;;;;8.50;4.53;;;11.50;99.90;;;;;;1957682;73;21148;-86
2022/03/16 00:08:00;;;;;;;8.45;4.00;;;11.60;99.90;;;;;;1941461;72;22174;-86
2022/03/16 00:11:22;;;;;;;8.73;4.40;;;11.50;99.90;;;;;;1915469;75;21038;-88
2022/03/16 00:14:16;;;;;;;7.47;4.20;;;11.50;99.90;;;;;;1914094;75;21046;-86
2022/03/16 00:17:19;;;;;;;7.05;4.08;;;11.30;99.90;;;;;;1921409;74;21049;-87
2022/03/16 00:20:17;;;;;;;7.15;3.80;;;11.30;99.90;;;;;;1908898;74;21089;-87
2022/03/16 00:23:10;;;;;;;12.10;4.08;;;11.20;99.90;;;;;;1887365;75;21059;-87
2022/03/16 00:29:19;;;;;;;8.70;3.80;;;11.10;99.90;;;;;;1944415;72;23555;-87
2022/03/16 00:32:30;;;;;;;9.08;4.15;;;11.00;99.90;;;;;;1898864;75;21051;-87
2022/03/16 00:35:23;;;;;;;8.03;4.72;;;11.00;99.90;;;;;;1891764;75;21645;-87
2022/03/16 00:38:16;;;;;;;9.45;4.40;;;11.10;99.90;;;;;;1894372;75;21081;-87
2022/03/16 00:41:09;;;;;;;7.95;5.08;;;11.10;99.90;;;;;;1892566;75;21125;-86
2022/03/16 00:46:43;;;;;;;8.23;4.17;;;10.90;99.90;;;;;;1937633;72;22574;-86
2022/03/16 00:49:53;;;;;;;6.35;3.90;;;10.80;99.90;;;;;;1890436;75;21075;-85
2022/03/16 00:52:45;;;;;;;8.80;4.28;;;10.70;99.90;;;;;;1882575;75;21133;-86
2022/03/16 00:58:15;;;;;;;6.42;4.08;;;10.70;99.90;;;;;;1932559;72;22281;-86
2022/03/16 01:01:25;;;;;;;6.80;4.28;;;10.60;99.90;;;;;;1908932;75;21042;-88
2022/03/16 01:04:17;;;;;;;5.62;3.90;;;10.60;99.90;;;;;;1916697;74;21129;-87
2022/03/16 01:07:09;;;;;;;8.68;4.37;;;10.60;99.90;;;;;;1921408;74;21123;-87
2022/03/16 01:12:39;;;;;;;12.90;4.90;;;10.60;99.90;;;;;;1932031;72;22213;-86
2022/03/16 01:18:28;;;;;;;8.80;4.60;;;10.60;99.90;;;;;;1954039;72;22221;-86
2022/03/16 01:21:38;;;;;;;8.43;4.92;;;10.60;99.90;;;;;;1919795;73;21153;-87
2022/03/16 01:24:32;;;;;;;8.13;4.83;;;10.50;99.90;;;;;;1905289;75;21193;-87
2022/03/16 01:27:24;;;;;;;9.10;4.15;;;10.50;99.90;;;;;;1905274;75;21099;-87
2022/03/16 01:30:16;;;;;;;7.47;4.50;;;10.60;99.90;;;;;;1907780;74;21066;-87
2022/03/16 01:33:08;;;;;;;6.05;4.37;;;10.50;99.90;;;;;;1905317;75;21091;-88
2022/03/16 01:35:59;;;;;;;6.65;4.65;;;10.50;99.90;;;;;;1905351;75;21151;-87
2022/03/16 01:38:52;;;;;;;10.50;6.37;;;10.60;99.90;;;;;;1905292;75;21143;-87
2022/03/16 01:41:44;;;;;;;7.67;4.75;;;10.60;99.90;;;;;;1917185;74;21095;-87
2022/03/16 01:44:47;;;;;;;6.15;4.70;;;10.60;99.90;;;;;;1905785;75;21113;-87
2022/03/16 01:47:39;;;;;;;7.60;4.22;;;10.60;99.90;;;;;;1905176;75;21110;-86
2022/03/16 01:50:31;;;;;;;7.65;4.10;;;10.40;99.90;;;;;;1905288;75;21063;-87
2022/03/16 01:53:24;;;;;;;11.60;4.58;;;10.40;99.90;;;;;;1905223;75;21191;-86
2022/03/16 01:56:20;;;;;;;9.28;5.22;;;10.40;99.90;;;;;;1905208;75;21066;-86
2022/03/16 02:01:52;;;;;;;7.60;4.40;;;10.30;99.90;;;;;;1944218;72;22139;-86
2022/03/16 02:05:03;;;;;;;8.38;4.87;;;10.30;99.90;;;;;;1904968;75;21171;-87
2022/03/16 02:07:55;;;;;;;6.83;4.05;;;10.30;99.90;;;;;;1895523;75;21051;-87
2022/03/16 02:10:46;;;;;;;6.85;4.40;;;10.20;99.90;;;;;;1893715;75;21106;-87
2022/03/16 02:16:24;;;;;;;8.55;4.72;;;10.10;99.90;;;;;;1941968;72;22170;-86
2022/03/16 02:22:15;;;;;;;7.33;4.70;;;10.20;99.90;;;;;;1940518;72;22697;-86
2022/03/16 02:28:04;;;;;;;7.45;5.15;;;10.10;99.90;;;;;;1960317;72;22238;-86
2022/03/16 02:31:17;;;;;;;6.25;4.50;;;10.10;99.90;;;;;;1904938;75;21095;-87
2022/03/16 02:36:47;;;;;;;8.00;5.10;;;10.00;99.90;;;;;;1955919;72;22108;-86
2022/03/16 02:39:57;;;;;;;8.95;4.40;;;10.00;99.90;;;;;;1900986;75;21099;-88
2022/03/16 02:42:49;;;;;;;6.85;4.70;;;9.90;99.90;;;;;;1905099;75;21559;-87
2022/03/16 02:45:41;;;;;;;8.68;4.85;;;9.90;99.90;;;;;;1887451;75;21094;-87
2022/03/16 02:51:13;;;;;;;5.25;4.53;;;10.00;99.90;;;;;;1937054;72;22161;-86
2022/03/16 02:54:23;;;;;;;8.55;4.90;;;10.00;99.90;;;;;;1904881;75;21109;-87
2022/03/16 02:59:55;;;;;;;8.73;4.55;;;9.90;99.90;;;;;;1941519;72;22268;-86
2022/03/16 03:03:05;;;;;;;7.37;4.80;;;9.90;99.90;;;;;;1874785;75;21060;-86
2022/03/16 03:05:57;;;;;;;8.70;4.55;;;9.90;99.90;;;;;;1878997;75;21126;-87
2022/03/16 03:11:27;;;;;;;8.38;4.80;;;9.90;99.90;;;;;;1956999;72;22091;-86
2022/03/16 03:17:23;;;;;;;7.47;4.47;;;9.90;99.90;;;;;;1953207;72;22167;-86
2022/03/16 03:20:33;;;;;;;7.40;4.60;;;10.00;99.90;;;;;;1877563;75;21108;-87
2022/03/16 03:23:27;;;;;;;6.15;4.70;;;10.00;99.90;;;;;;1894006;75;21205;-87
2022/03/16 03:29:04;;;;;;;9.55;5.75;;;10.00;99.90;;;;;;1950378;72;28048;-88
2022/03/16 03:32:14;;;;;;;11.10;5.10;;;10.20;99.90;;;;;;1927269;74;21140;-86
2022/03/16 03:35:07;;;;;;;7.05;4.70;;;10.20;99.90;;;;;;1908479;74;21122;-86
2022/03/16 03:37:58;;;;;;;7.60;4.90;;;10.10;99.90;;;;;;1918178;74;21151;-86
2022/03/16 03:40:50;;;;;;;8.98;4.90;;;10.00;99.90;;;;;;1921833;74;21051;-86
2022/03/16 03:46:21;;;;;;;7.85;4.58;;;10.00;99.90;;;;;;1931920;72;22612;-87
2022/03/16 03:49:30;;;;;;;8.35;4.55;;;9.90;99.90;;;;;;1914937;75;21055;-88
2022/03/16 03:52:24;;;;;;;7.10;4.95;;;9.90;99.90;;;;;;1909846;75;21200;-88
2022/03/16 03:58:00;;;;;;;8.10;4.42;;;9.80;99.90;;;;;;1958024;72;22166;-88
2022/03/16 04:01:29;;;;;;;;;;;9.70;99.90;;;;;;1892746;75;21094;-87
2022/03/16 04:04:31;;;;;;;8.35;4.60;;;9.60;99.90;;;;;;1886929;75;20149;-84
2022/03/16 04:07:34;;;;;;;5.40;4.33;;;9.50;99.90;;;;;;1895454;75;21040;-83
2022/03/16 04:13:41;;;;;;;6.72;4.60;;;9.50;99.90;;;;;;1993193;71;22104;-86
2022/03/16 04:19:53;;;;;;;9.70;5.25;;;9.40;99.90;;;;;;1942805;72;22154;-88
2022/03/16 04:23:13;;;;;;;10.53;5.37;;;9.50;99.90;;;;;;1920462;74;21160;-87
2022/03/16 04:26:23;;;;;;;9.33;5.28;;;9.50;99.90;;;;;;1898621;75;21215;-87
2022/03/16 04:32:02;;;;;;;8.60;6.12;;;9.60;99.90;;;;;;1934085;72;22272;-85
2022/03/16 04:37:52;;;;;;;9.38;7.12;;;9.60;99.90;;;;;;1955909;72;22217;-88
2022/03/16 04:41:03;;;;;;;9.63;6.05;;;9.60;99.90;;;;;;1935888;73;21086;-88
2022/03/16 04:46:33;;;;;;;12.23;6.75;;;9.60;99.90;;;;;;1948611;72;22135;-86
2022/03/16 04:49:43;;;;;;;8.70;5.50;;;9.60;99.90;;;;;;1910806;75;21086;-86
2022/03/16 04:52:44;;;;;;;10.98;5.90;;;9.60;99.90;;;;;;1905417;75;21071;-86
2022/03/16 04:58:15;;;;;;;8.60;5.53;;;9.60;99.90;;;;;;1935592;72;22130;-85
2022/03/16 05:01:25;;;;;;;10.30;5.75;;;9.60;99.90;;;;;;1902585;75;21162;-87
2022/03/16 05:04:17;;;;;;;5.60;4.60;;;9.60;99.90;;;;;;1902446;75;21063;-87
2022/03/16 05:07:09;;;;;;;10.65;5.45;;;9.60;99.90;;;;;;1892185;75;21117;-86
2022/03/16 05:10:00;;;;;;;7.60;5.12;;;9.60;99.90;;;;;;1887091;75;21157;-86
2022/03/16 05:12:52;;;;;;;8.50;5.60;;;9.60;99.90;;;;;;1883944;75;21088;-87
2022/03/16 05:15:44;;;;;;;8.73;5.58;;;9.60;99.90;;;;;;1904691;75;21169;-87
2022/03/16 05:21:15;;;;;;;7.15;5.37;;;9.50;99.90;;;;;;1960399;72;22201;-85
2022/03/16 05:27:03;;;;;;;7.78;5.55;;;9.50;99.90;;;;;;1952495;72;22202;-85
2022/03/16 05:30:14;;;;;;;8.13;5.85;;;9.50;99.90;;;;;;1923098;74;21068;-87
2022/03/16 05:33:06;;;;;;;8.98;6.08;;;9.60;99.90;;;;;;1905256;75;21068;-87
2022/03/16 05:35:57;;;;;;;7.90;6.40;;;9.60;99.90;;;;;;1916613;74;21180;-87
2022/03/16 05:41:28;;;;;;;10.72;6.17;;;9.50;99.90;;;;;;1921653;72;22172;-88
2022/03/16 05:44:38;;;;;;;8.53;6.45;;;9.60;99.90;;;;;;1886412;75;21057;-87
2022/03/16 05:47:30;;;;;;;15.88;7.70;;;9.50;99.90;;;;;;1905374;75;21074;-87
2022/03/16 05:50:22;;;;;;;12.47;7.97;;;9.50;99.90;;;;;;1886242;75;21158;-86
2022/03/16 05:53:14;;;;;;;9.90;6.42;;;9.50;99.90;;;;;;1898052;75;21119;-88
2022/03/16 05:56:07;;;;;;;9.03;6.15;;;9.50;99.90;;;;;;1884687;75;21143;-87
2022/03/16 05:58:59;;;;;;;11.33;6.37;;;9.60;99.90;;;;;;1885264;75;21121;-87
2022/03/16 06:01:51;;;;;;;8.93;6.15;;;9.50;99.90;;;;;;1891917;73;21215;-87
2022/03/16 06:07:49;;;;;;;8.55;5.78;;;9.40;99.90;;;;;;1934033;72;22162;-87
2022/03/16 06:11:00;;;;;;;10.38;6.60;;;9.50;99.90;;;;;;1899794;75;21135;-87
2022/03/16 06:13:52;;;;;;;14.50;7.28;;;9.50;99.90;;;;;;1896809;75;21035;-87
2022/03/16 06:16:44;;;;;;;16.45;6.45;;;9.60;99.90;;;;;;1895819;75;21099;-88
2022/03/16 06:19:35;;;;;;;11.12;6.10;;;9.60;99.90;;;;;;1894508;75;21123;-88
2022/03/16 06:22:27;;;;;;;13.98;6.50;;;9.50;99.90;;;;;;1892033;75;21051;-88
2022/03/16 06:25:19;;;;;;;10.82;6.12;;;9.50;99.90;;;;;;1894422;75;21094;-87
2022/03/16 06:30:56;;;;;;;10.98;6.08;;;9.60;99.90;;;;;;1921705;72;22360;-88
2022/03/16 06:36:46;;;;;;;8.60;5.80;;;9.70;99.90;;;;;;1938505;72;22228;-75
2022/03/16 06:39:55;;;;;;;11.20;6.47;;;9.70;99.90;;;;;;1924125;73;21035;-75
2022/03/16 06:42:51;;;;;;;9.43;5.42;;;9.70;99.90;;;;;;1936657;73;21154;-75
2022/03/16 06:45:42;;;;;;;13.00;5.53;;;9.70;99.90;;;;;;1920355;73;21187;-76
2022/03/16 06:51:14;;;;;;;9.85;5.00;;;9.80;99.90;;;;;;1933616;72;22680;-75
2022/03/16 06:54:24;;;;;;;10.72;5.20;;;9.80;99.90;;;;;;1905901;75;21077;-74
2022/03/16 06:57:17;;;;;;;8.80;5.10;;;9.90;99.90;;;;;;1872207;75;21147;-75
2022/03/16 07:00:13;;;;;;;9.78;5.30;;;9.90;99.90;;;;;;1881566;75;21294;-73
2022/03/16 07:03:07;;;;;;;10.43;5.72;;;10.00;99.90;;;;;;1902639;75;21124;-74
2022/03/16 07:11:18;;;;;;;10.93;6.08;;;10.20;99.90;;;;;;1964452;72;22333;-75
2022/03/16 07:17:08;;;;;;;14.63;6.58;;;10.30;99.90;;;;;;1932479;72;22270;-75
2022/03/16 07:20:19;;;;;;;10.30;5.78;;;10.30;99.90;;;;;;1895604;75;21515;-75
2022/03/16 07:23:14;;;;;;;10.43;6.30;;;10.30;99.90;;;;;;1890374;75;21141;-74
2022/03/16 07:26:06;;;;;;;10.85;5.40;;;10.40;99.90;;;;;;1883440;75;21160;-74
2022/03/16 07:28:57;;;;;;;11.15;5.83;;;10.40;99.90;;;;;;1872281;75;21208;-76
2022/03/16 07:31:49;;;;;;;8.28;5.40;;;10.50;99.90;;;;;;1875002;75;21193;-85
2022/03/16 07:37:19;;;;;;;8.55;5.80;;;10.80;99.90;;;;;;1976296;72;22190;-86
2022/03/16 07:40:30;;;;;;;11.48;6.03;;;10.90;99.90;;;;;;1927295;73;21102;-86
2022/03/16 07:43:22;;;;;;;25.55;14.58;;;11.00;99.90;;;;;;1917198;75;21205;-85
2022/03/16 07:46:14;;;;;;;11.28;6.65;;;11.00;99.90;;;;;;1939619;73;21584;-86
2022/03/16 07:51:44;;;;;;;10.18;6.33;;;11.00;99.90;;;;;;1943141;72;22182;-87
2022/03/16 07:57:32;;;;;;;13.13;6.42;;;11.30;99.90;;;;;;1945543;72;22257;-87
2022/03/16 08:00:41;;;;;;;10.72;6.53;;;11.40;99.90;;;;;;1897163;75;21064;-87
2022/03/16 08:03:33;;;;;;;10.63;6.15;;;11.60;99.90;;;;;;1890313;75;21585;-87
2022/03/16 08:06:24;;;;;;;12.73;6.17;;;11.70;99.90;;;;;;1894556;75;21111;-87
2022/03/16 08:11:53;;;;;;;10.15;6.08;;;11.60;99.90;;;;;;1941359;72;22217;-86
2022/03/16 08:17:42;;;;;;;13.20;7.58;;;11.50;99.90;;;;;;1942823;72;22239;-86
2022/03/16 08:23:35;;;;;;;12.35;6.80;;;11.50;99.90;;;;;;1952772;72;22234;-86
2022/03/16 08:26:45;;;;;;;11.45;6.50;;;11.60;99.90;;;;;;1915888;75;21106;-86
2022/03/16 08:32:16;;;;;;;11.73;5.92;;;11.80;99.90;;;;;;1944449;72;22612;-87
2022/03/16 08:35:27;;;;;;;9.33;6.75;;;12.00;99.90;;;;;;1909244;75;21119;-86
2022/03/16 08:38:18;;;;;;;14.90;6.90;;;12.10;99.90;;;;;;1895660;75;21090;-86
2022/03/16 08:41:10;;;;;;;10.40;7.28;;;12.20;99.90;;;;;;1917126;75;21071;-86
2022/03/16 08:46:40;;;;;;;11.55;7.40;;;12.50;99.90;;;;;;1933403;72;22221;-85
2022/03/16 08:49:51;;;;;;;9.00;6.60;;;12.60;99.90;;;;;;1895921;74;21055;-86
2022/03/16 08:52:44;;;;;;;11.63;7.15;;;12.60;99.90;;;;;;1880402;76;21563;-86
2022/03/16 08:55:35;;;;;;;11.53;7.35;;;12.80;99.90;;;;;;1890922;75;21063;-85
2022/03/16 08:58:27;;;;;;;15.60;7.42;;;12.70;99.90;;;;;;1896806;75;21542;-85
2022/03/16 09:01:19;;;;;;;12.53;8.15;;;12.80;99.90;;;;;;1906614;75;21083;-85
2022/03/16 09:04:10;;;;;;;10.88;7.53;;;12.90;99.90;;;;;;1904969;75;21214;-85
2022/03/16 09:07:02;;;;;;;13.55;8.40;;;13.00;99.90;;;;;;1898556;75;21145;-86
2022/03/16 09:09:55;;;;;;;18.40;8.13;;;13.00;99.90;;;;;;1902116;75;21114;-85
2022/03/16 09:12:47;;;;;;;12.35;7.33;;;13.00;99.90;;;;;;1886522;75;21139;-86
2022/03/16 09:15:38;;;;;;;11.63;8.55;;;13.20;99.90;;;;;;1902976;75;21138;-86
2022/03/16 09:18:29;;;;;;;13.45;8.38;;;13.30;99.90;;;;;;1904707;75;21122;-86
2022/03/16 09:21:21;;;;;;;14.78;9.03;;;13.40;99.90;;;;;;1900154;75;21117;-87
2022/03/16 09:24:12;;;;;;;16.40;8.83;;;13.50;99.90;;;;;;1907529;75;21172;-85
2022/03/16 09:27:04;;;;;;;15.60;8.30;;;13.60;99.90;;;;;;1911288;75;21180;-86
2022/03/16 09:29:55;;;;;;;12.85;8.45;;;13.60;99.90;;;;;;1912580;75;21116;-85
2022/03/16 09:32:47;;;;;;;16.02;9.05;;;13.60;99.90;;;;;;1904391;75;21187;-86
2022/03/16 09:35:38;;;;;;;12.78;8.75;;;13.60;99.90;;;;;;1899376;75;21051;-87
2022/03/16 09:38:30;;;;;;;12.13;8.88;;;13.70;99.90;;;;;;1912754;75;21092;-86
2022/03/16 09:41:53;;;;;;;12.50;8.60;;;13.70;99.90;;;;;;1915876;75;21169;-86
2022/03/16 09:44:50;;;;;;;12.75;8.35;;;13.80;99.90;;;;;;1894432;75;21079;-86
2022/03/16 09:47:47;;;;;;;13.68;8.45;;;14.10;99.90;;;;;;1847472;77;21162;-74
2022/03/16 09:56:48;;;;;;;14.25;8.65;;;14.30;99.90;;;;;;1947642;72;22120;-87
2022/03/16 10:02:36;;;;;;;13.93;8.65;;;14.30;99.90;;;;;;1957402;72;22173;-86
2022/03/16 10:06:25;;;;;;;;;;;;;;;;;;;;;
2022/03/16 10:16:16;;;;;;;17.52;8.75;;;14.30;99.90;;;;;;1945245;72;22198;-74
2022/03/16 10:19:26;;;;;;;14.53;8.55;;;14.50;99.90;;;;;;1884747;75;21114;-74
2022/03/16 10:22:26;;;;;;;12.37;8.10;;;14.50;99.90;;;;;;1906644;75;21131;-74
2022/03/16 10:25:19;;;;;;;11.85;8.43;;;14.40;99.90;;;;;;1908831;75;21101;-75
2022/03/16 10:28:29;;;;;;;17.55;8.08;;;14.40;99.90;;;;;;1897783;75;21083;-87
2022/03/16 10:31:22;;;;;;;14.53;8.70;;;14.50;99.90;;;;;;1903232;75;21102;-87
2022/03/16 10:36:55;;;;;;;13.95;9.03;;;14.70;99.90;;;;;;1945456;72;22210;-85
2022/03/16 10:40:18;;;;;;;15.00;9.25;;;14.70;99.90;;;;;;1925438;73;21139;-75
2022/03/16 10:46:38;;;;;;;15.95;8.75;;;14.90;99.90;;;;;;1917284;75;21103;-87
2022/03/16 11:03:25;;;;;;;12.40;8.00;;;15.10;99.90;;;;;;1957913;72;22115;-76
2022/03/16 11:06:36;;;;;;;12.37;7.90;;;15.20;99.90;;;;;;1907091;75;21317;-86
2022/03/16 11:09:29;;;;;;;16.93;8.45;;;15.40;99.90;;;;;;1887774;75;21470;-86
2022/03/16 11:18:31;;;;;;;11.60;7.50;;;15.60;99.90;;;;;;1953954;72;22190;-76
2022/03/16 11:27:14;;;;;;;11.60;6.83;;;15.80;99.90;;;;;;1930250;72;22244;-76
2022/03/16 11:30:29;;;;;;;8.35;5.00;;;16.00;99.90;;;;;;1875304;75;21102;-74
2022/03/16 11:33:21;;;;;;;8.23;4.97;;;16.30;99.90;;;;;;1893913;75;21046;-74
2022/03/16 11:36:14;;;;;;;9.55;4.25;;;16.50;99.90;;;;;;1884344;75;21533;-74
2022/03/16 11:41:51;;;;;;;9.53;5.03;;;16.70;99.90;;;;;;1946218;72;22224;-76
2022/03/16 11:45:22;;;;;;;5.60;4.62;;;16.50;99.90;;;;;;1933722;73;21038;-75
2022/03/16 11:48:39;;;;;;;7.28;4.55;;;16.50;99.90;;;;;;1922969;73;21146;-74
2022/03/16 11:51:33;;;;;;;11.70;5.60;;;16.60;99.90;;;;;;1940640;73;21066;-74
2022/03/16 11:54:31;;;;;;;11.80;6.35;;;16.60;99.90;;;;;;1933864;73;21217;-75
2022/03/16 11:57:36;;;;;;;8.90;6.05;;;16.50;99.90;;;;;;1917327;75;21517;-87
2022/03/16 12:00:28;;;;;;;9.60;6.17;;;16.70;99.90;;;;;;1924328;73;21153;-86
2022/03/16 12:03:22;;;;;;;14.53;6.55;;;16.70;99.90;;;;;;1917599;75;21389;-86
2022/03/16 12:06:13;;;;;;;10.80;6.53;;;16.70;99.90;;;;;;1940288;73;21084;-86
2022/03/16 12:09:06;;;;;;;12.15;6.58;;;16.70;99.90;;;;;;1922140;73;21585;-86
2022/03/16 12:18:25;;;;;;;10.45;6.15;;;17.70;99.90;;;;;;1954579;72;22245;-85
2022/03/16 12:21:36;;;;;;;13.38;6.20;;;17.90;99.90;;;;;;1917370;75;21122;-86
2022/03/16 12:30:56;;;;;;;10.20;5.80;;;17.70;99.90;;;;;;1905045;75;20122;-74
2022/03/16 12:33:50;;;;;;;10.13;5.42;;;17.60;99.90;;;;;;1906634;75;21131;-74
2022/03/16 12:36:42;;;;;;;8.68;5.03;;;17.40;99.90;;;;;;1887888;75;21055;-75
2022/03/16 12:39:33;;;;;;;9.65;5.72;;;17.50;99.90;;;;;;1897554;75;21059;-74
2022/03/16 12:42:32;;;;;;;11.22;5.92;;;17.70;99.90;;;;;;1917889;75;21172;-74
2022/03/16 12:45:28;;;;;;;9.20;5.58;;;17.90;99.90;;;;;;1890687;75;21090;-76
2022/03/16 12:48:22;;;;;;;10.45;5.65;;;18.00;99.90;;;;;;1895375;75;21093;-76
2022/03/16 12:51:16;;;;;;;10.60;5.35;;;18.00;99.90;;;;;;1893764;75;22194;-88
2022/03/16 12:54:09;;;;;;;8.03;4.85;;;18.10;99.90;;;;;;1903585;75;21534;-88
2022/03/16 12:57:05;;;;;;;11.22;5.28;;;18.00;99.90;;;;;;1903508;75;21106;-86
2022/03/16 12:59:57;;;;;;;9.18;5.35;;;18.00;99.90;;;;;;1894207;75;21382;-86
2022/03/16 13:02:50;;;;;;;8.48;4.92;;;18.00;99.90;;;;;;1890788;75;21598;-86
2022/03/16 13:05:42;;;;;;;8.08;3.30;;;18.20;99.90;;;;;;1906360;75;21189;-85
2022/03/16 13:08:42;;;;;;;9.60;3.40;;;18.30;99.90;;;;;;1884695;76;21058;-86
2022/03/16 13:11:30;;;;;;;9.05;3.08;;;18.20;99.90;;;;;;1917560;75;21593;-85
2022/03/16 13:14:22;;;;;;;7.30;2.87;;;18.20;99.90;;;;;;1895149;75;21619;-86
2022/03/16 13:17:14;;;;;;;10.20;3.00;;;18.30;99.90;;;;;;1912046;74;21231;-86
2022/03/16 13:20:08;;;;;;;6.60;2.40;;;18.30;99.90;;;;;;1872622;76;21110;-86
2022/03/16 13:23:05;;;;;;;8.15;2.77;;;18.20;99.90;;;;;;1884186;76;21147;-86
2022/03/16 13:26:10;;;;;;;7.90;2.58;;;18.10;99.90;;;;;;1885361;75;21061;-86
2022/03/16 13:29:06;;;;;;;9.63;2.90;;;18.30;99.90;;;;;;1881166;75;21048;-86
2022/03/16 13:31:59;;;;;;;9.25;2.98;;;18.40;99.90;;;;;;1882591;75;21176;-85
2022/03/16 13:34:51;;;;;;;8.18;2.83;;;18.20;99.90;;;;;;1882586;75;21057;-86
2022/03/16 13:37:48;;;;;;;9.58;2.92;;;18.30;99.90;;;;;;1889259;75;21047;-86
2022/03/16 13:40:42;;;;;;;8.80;3.87;;;18.20;99.90;;;;;;1904725;75;21129;-86
2022/03/16 13:43:36;;;;;;;9.28;3.10;;;17.90;99.90;;;;;;1883220;75;21097;-86
2022/03/16 13:46:40;;;;;;;12.13;2.60;;;17.90;99.90;;;;;;1878563;75;21061;-86
2022/03/16 13:49:37;;;;;;;7.75;3.05;;;17.90;99.90;;;;;;1893819;75;21048;-86
2022/03/16 13:52:31;;;;;;;6.85;2.77;;;17.90;99.90;;;;;;1891580;75;21043;-87
2022/03/16 13:55:23;;;;;;;13.68;3.05;;;18.00;99.90;;;;;;1901741;75;21537;-86
2022/03/16 13:58:17;;;;;;;5.80;2.90;;;17.90;99.90;;;;;;1906099;75;21150;-86
2022/03/16 14:01:09;;;;;;;10.68;3.12;;;18.00;99.90;;;;;;1876850;75;21060;-86
2022/03/16 14:04:05;;;;;;;7.87;2.67;;;18.00;99.90;;;;;;1917053;75;21466;-86
2022/03/16 14:06:59;;;;;;;6.30;2.87;;;18.00;99.90;;;;;;1902382;75;21055;-86
2022/03/16 14:09:53;;;;;;;5.45;2.50;;;18.10;99.90;;;;;;1917107;75;21051;-86
2022/03/16 14:12:47;;;;;;;8.25;2.72;;;18.00;99.90;;;;;;1883029;75;21114;-86
2022/03/16 14:15:39;;;;;;;5.62;2.42;;;18.00;99.90;;;;;;1882558;75;21578;-86
2022/03/16 14:18:32;;;;;;;6.15;2.40;;;17.90;99.90;;;;;;1894376;75;21196;-86
2022/03/16 14:21:26;;;;;;;4.00;2.50;;;18.00;99.90;;;;;;1893788;76;21130;-87
2022/03/16 14:24:17;;;;;;;3.83;2.10;;;17.90;99.90;;;;;;1893965;76;21155;-86
2022/03/16 14:27:19;;;;;;;7.72;2.08;;;17.70;99.90;;;;;;1879527;76;21497;-86
2022/03/16 14:30:13;;;;;;;10.70;2.62;;;17.70;99.90;;;;;;1921902;74;21087;-87
2022/03/16 14:33:06;;;;;;;6.03;2.37;;;17.80;99.90;;;;;;1900006;75;21128;-87
2022/03/16 14:36:01;;;;;;;7.37;2.45;;;17.80;99.90;;;;;;1915064;74;21062;-87
2022/03/16 14:38:53;;;;;;;6.65;2.40;;;17.80;99.90;;;;;;1910879;74;21163;-86
2022/03/16 14:41:45;;;;;;;7.37;2.30;;;17.90;99.90;;;;;;1906046;74;21102;-86
2022/03/16 14:44:36;;;;;;;5.50;2.27;;;17.90;99.90;;;;;;1922232;74;21559;-87
2022/03/16 14:47:28;;;;;;;8.85;2.17;;;18.00;99.90;;;;;;1916343;74;21569;-86
2022/03/16 14:50:23;;;;;;;6.87;2.22;;;18.20;99.90;;;;;;1933310;74;21039;-86
2022/03/16 14:53:14;;;;;;;8.28;2.60;;;18.10;99.90;;;;;;1926204;74;21123;-86
2022/03/16 14:56:06;;;;;;;5.03;1.90;;;18.10;99.90;;;;;;1922327;74;21100;-86
2022/03/16 14:58:58;;;;;;;7.55;2.20;;;18.20;99.90;;;;;;1918706;74;21073;-86
2022/03/16 15:01:49;;;;;;;4.53;2.10;;;18.20;99.90;;;;;;1933199;74;21112;-86
2022/03/16 15:04:43;;;;;;;5.03;2.40;;;18.00;99.90;;;;;;1910561;74;21593;-86
2022/03/16 15:07:35;;;;;;;4.97;1.98;;;18.20;99.90;;;;;;1907619;74;21149;-86
2022/03/16 15:10:27;;;;;;;8.85;2.83;;;18.30;99.90;;;;;;1900025;75;21587;-87
2022/03/16 15:13:20;;;;;;;5.22;1.98;;;18.50;99.90;;;;;;1900204;75;21496;-75
2022/03/16 15:16:12;;;;;;;5.67;2.30;;;18.50;99.90;;;;;;1932854;74;21046;-73
2022/03/16 15:19:05;;;;;;;5.75;2.40;;;18.50;99.90;;;;;;1905687;74;21565;-75
2022/03/16 15:21:57;;;;;;;6.17;2.42;;;18.60;99.90;;;;;;1893879;75;21130;-74
2022/03/16 15:24:49;;;;;;;4.42;2.00;;;18.90;99.90;;;;;;1902071;75;21538;-75
2022/03/16 15:27:40;;;;;;;7.85;2.60;;;19.20;99.90;;;;;;1916944;75;21137;-75
2022/03/16 15:30:33;;;;;;;5.97;2.37;;;19.40;99.90;;;;;;1886741;75;21062;-75
2022/03/16 15:33:28;;;;;;;4.83;2.25;;;19.30;99.90;;;;;;1883933;75;21127;-75
2022/03/16 15:36:20;;;;;;;5.42;2.37;;;19.30;99.90;;;;;;1904812;75;21055;-88
2022/03/16 15:39:13;;;;;;;7.03;2.62;;;19.30;99.90;;;;;;1901067;75;21145;-87
2022/03/16 15:45:17;;;;;;;4.42;2.05;;;18.70;99.90;;;;;;1894937;75;21040;-88
2022/03/16 15:48:10;;;;;;;8.15;2.33;;;18.70;99.90;;;;;;1877399;75;21094;-87
2022/03/16 15:51:02;;;;;;;5.08;2.40;;;18.60;99.90;;;;;;1905690;75;21153;-87
2022/03/16 15:53:54;;;;;;;5.75;2.37;;;18.50;99.90;;;;;;1884212;75;21060;-87
2022/03/16 15:56:46;;;;;;;6.35;2.30;;;18.50;99.90;;;;;;1904551;75;21059;-74
2022/03/16 15:59:39;;;;;;;7.45;2.47;;;18.60;99.90;;;;;;1882350;75;21098;-75
2022/03/16 16:02:31;;;;;;;4.95;2.55;;;18.60;99.90;;;;;;1880416;75;21531;-74
2022/03/16 16:05:23;;;;;;;8.55;2.05;;;18.30;99.90;;;;;;1891415;75;21051;-76
2022/03/16 16:08:15;;;;;;;7.83;3.33;;;18.30;99.90;;;;;;1904478;75;21099;-74
2022/03/16 16:11:09;;;;;;;8.65;3.10;;;18.20;99.90;;;;;;1882777;75;21060;-74
2022/03/16 16:14:01;;;;;;;9.85;2.62;;;18.20;99.90;;;;;;1878687;75;21065;-74
2022/03/16 16:16:54;;;;;;;7.65;3.00;;;18.30;99.90;;;;;;1883999;76;21054;-74
2022/03/16 16:19:46;;;;;;;10.32;3.15;;;18.30;99.90;;;;;;1888618;75;21144;-74
2022/03/16 16:22:38;;;;;;;7.37;2.60;;;18.30;99.90;;;;;;1932649;74;21184;-75
2022/03/16 16:25:31;;;;;;;4.90;2.50;;;18.20;99.90;;;;;;1910428;74;21579;-74
2022/03/16 16:28:25;;;;;;;5.20;2.45;;;18.20;99.90;;;;;;1910736;74;21107;-74
2022/03/16 16:31:16;;;;;;;9.48;3.65;;;18.20;99.90;;;;;;1932958;74;21303;-74
2022/03/16 16:34:09;;;;;;;8.28;3.20;;;18.10;99.90;;;;;;1932939;74;21047;-74
2022/03/16 16:37:01;;;;;;;6.47;2.90;;;18.10;99.90;;;;;;1910936;74;21043;-74
2022/03/16 16:39:53;;;;;;;5.45;2.30;;;18.00;99.90;;;;;;1910591;74;21124;-74
2022/03/16 16:45:55;;;;;;;4.65;2.70;;;17.80;99.90;;;;;;1899652;75;21091;-74
2022/03/16 16:48:47;;;;;;;5.12;2.37;;;17.60;99.90;;;;;;1932920;74;21046;-74
2022/03/16 16:51:43;;;;;;;4.67;2.55;;;17.40;99.90;;;;;;1910862;74;21086;-74
2022/03/16 16:54:35;;;;;;;9.05;2.83;;;17.40;99.90;;;;;;1907146;74;21063;-74
2022/03/16 16:57:27;;;;;;;5.40;2.60;;;17.30;99.90;;;;;;1899630;74;21143;-74
2022/03/16 17:00:21;;;;;;;6.37;2.62;;;17.30;99.90;;;;;;1899670;75;21051;-75
2022/03/16 17:03:15;;;;;;;7.37;2.50;;;17.20;99.90;;;;;;1899414;75;21103;-75
2022/03/16 17:06:06;;;;;;;6.53;2.75;;;17.10;99.90;;;;;;1899900;74;21058;-75
2022/03/16 17:08:59;;;;;;;3.55;2.42;;;17.20;99.90;;;;;;1922177;74;21577;-75
2022/03/16 17:11:50;;;;;;;5.12;2.72;;;17.20;99.90;;;;;;1917850;74;21083;-75
2022/03/16 17:14:42;;;;;;;7.20;2.83;;;17.10;99.90;;;;;;1920369;74;21137;-75
2022/03/16 17:17:36;;;;;;;7.80;2.65;;;16.80;99.90;;;;;;1922196;74;21505;-75
2022/03/16 17:20:30;;;;;;;8.13;2.70;;;16.70;99.90;;;;;;1919364;74;21096;-74
2022/03/16 17:23:24;;;;;;;6.35;2.90;;;16.70;99.90;;;;;;1904798;75;21043;-75
2022/03/16 17:26:17;;;;;;;4.25;2.40;;;16.50;99.90;;;;;;1900947;75;21125;-74
2022/03/16 17:29:08;;;;;;;6.85;2.60;;;16.50;99.90;;;;;;1916963;75;21201;-74
2022/03/16 17:32:02;;;;;;;4.75;2.72;;;16.40;99.90;;;;;;1895061;75;21099;-74
2022/03/16 17:34:54;;;;;;;6.40;2.80;;;16.30;99.90;;;;;;1894936;75;21172;-74
2022/03/16 17:37:46;;;;;;;9.38;2.90;;;16.20;99.90;;;;;;1899203;75;21256;-74
2022/03/16 17:40:39;;;;;;;5.22;2.77;;;16.20;99.90;;;;;;1916928;75;21072;-74
2022/03/16 17:46:40;;;;;;;6.15;3.20;;;16.10;99.90;;;;;;1894699;75;21084;-75
2022/03/16 17:49:31;;;;;;;6.80;3.12;;;16.10;99.90;;;;;;1916783;75;21135;-74
2022/03/16 17:52:23;;;;;;;5.83;3.10;;;16.00;99.90;;;;;;1899333;75;21124;-74
2022/03/16 17:56:45;;;;;;;8.25;3.00;;;16.00;99.90;;;;;;1916923;75;21559;-74
2022/03/16 17:58:09;;;;;;;5.72;2.67;;;16.00;99.90;;;;;;1886263;75;21168;-74
2022/03/16 18:01:03;;;;;;;5.25;2.75;;;16.10;99.90;;;;;;1905876;75;21050;-74
2022/03/16 18:03:55;;;;;;;7.75;3.35;;;16.10;99.90;;;;;;1903904;75;21063;-74
2022/03/16 18:06:48;;;;;;;8.10;4.12;;;16.00;99.90;;;;;;1917124;75;21088;-74
2022/03/16 18:13:02;;;;;;;7.75;3.17;;;16.00;99.90;;;;;;1906369;75;21179;-74
2022/03/16 18:15:56;;;;;;;5.28;3.12;;;15.90;99.90;;;;;;1905824;75;21060;-74
2022/03/16 18:18:48;;;;;;;5.22;2.80;;;15.80;99.90;;;;;;1907021;75;21589;-74
2022/03/16 18:21:41;;;;;;;6.65;2.83;;;15.80;99.90;;;;;;1897477;75;21614;-74
2022/03/16 18:24:33;;;;;;;7.33;3.47;;;15.80;99.90;;;;;;1916775;75;21060;-75
2022/03/16 18:27:25;;;;;;;7.08;3.17;;;15.70;99.90;;;;;;1907761;75;21098;-74
2022/03/16 18:30:17;;;;;;;9.30;5.35;;;15.70;99.90;;;;;;1905978;75;21110;-74